createdAt,value
2023-05-19T00:01:17.802Z,102782.31
2023-05-19T00:03:57.549Z,102772.75
2023-05-19T00:06:27.652Z,102778.13
2023-05-19T00:09:00.164Z,102774.53
2023-05-19T00:11:28.308Z,102769.19
2023-05-19T00:13:56.970Z,102767.72
2023-05-19T00:16:24.686Z,102771.47
2023-05-19T00:18:51.856Z,102773.97
2023-05-19T00:21:19.465Z,102771.03
2023-05-19T00:23:46.324Z,102773.84
2023-05-19T00:26:13.075Z,102765.75
2023-05-19T00:28:39.938Z,102774.13
2023-05-19T00:31:07.016Z,102775.41
2023-05-19T00:33:34.021Z,102765.81
2023-05-19T00:36:03.452Z,102765.97
2023-05-19T00:38:34.843Z,102768.94
2023-05-19T00:41:05.704Z,102763.84
2023-05-19T00:43:34.408Z,102757.00
2023-05-19T00:46:01.116Z,102760.78
2023-05-19T00:48:28.074Z,102756.47
2023-05-19T00:51:01.961Z,102756.16
2023-05-19T00:53:29.510Z,102762.22
2023-05-19T00:55:56.541Z,102760.19
2023-05-19T00:58:25.671Z,102764.38
2023-05-19T01:00:53.010Z,102763.41
2023-05-19T01:03:20.760Z,102771.03
2023-05-19T01:05:53.841Z,102771.56
2023-05-19T01:08:20.641Z,102769.84
2023-05-19T01:10:47.301Z,102765.09
2023-05-19T01:13:14.417Z,102761.31
2023-05-19T01:16:02.917Z,102773.00
2023-05-19T01:18:42.612Z,102776.66
2023-05-19T01:21:31.468Z,102777.34
2023-05-19T01:24:14.349Z,102774.88
2023-05-19T01:26:56.664Z,102782.50
2023-05-19T01:30:17.072Z,102784.66
2023-05-19T01:32:45.576Z,102784.56
2023-05-19T01:35:15.652Z,102767.25
2023-05-19T01:37:42.928Z,102780.91
2023-05-19T01:40:10.505Z,102773.56
2023-05-19T01:42:40.534Z,102777.94
2023-05-19T01:47:55.816Z,102770.88
2023-05-19T01:50:22.966Z,102787.47
2023-05-19T01:52:50.257Z,102786.59
2023-05-19T01:55:17.061Z,102788.41
2023-05-19T01:58:19.619Z,102789.72
2023-05-19T02:01:21.243Z,102790.47
2023-05-19T02:04:09.574Z,102794.44
2023-05-19T02:06:51.351Z,102790.06
2023-05-19T02:09:39.768Z,102787.69
2023-05-19T02:12:25.084Z,102777.88
2023-05-19T02:15:05.565Z,102780.13
2023-05-19T02:17:36.291Z,102774.97
2023-05-19T02:20:04.926Z,102756.06
2023-05-19T02:22:31.799Z,102769.44
2023-05-19T02:24:58.514Z,102771.75
2023-05-19T02:27:25.089Z,102770.28
2023-05-19T02:29:52.733Z,102768.66
2023-05-19T02:32:21.086Z,102769.09
2023-05-19T02:34:47.989Z,102770.78
2023-05-19T02:37:15.790Z,102751.34
2023-05-19T02:39:44.393Z,102770.28
2023-05-19T02:42:12.480Z,102778.19
2023-05-19T02:44:39.193Z,102767.28
2023-05-19T02:47:05.926Z,102770.91
2023-05-19T02:49:36.103Z,102775.84
2023-05-19T02:52:03.795Z,102772.84
2023-05-19T02:54:31.534Z,102766.19
2023-05-19T02:56:58.562Z,102765.56
2023-05-19T02:59:25.800Z,102783.84
2023-05-19T03:01:57.524Z,102774.13
2023-05-19T03:04:24.130Z,102771.44
2023-05-19T03:06:50.868Z,102781.59
2023-05-19T03:09:17.516Z,102766.00
2023-05-19T03:11:44.100Z,102773.47
2023-05-19T03:14:10.784Z,102765.22
2023-05-19T03:16:41.163Z,102773.03
2023-05-19T03:19:09.296Z,102771.53
2023-05-19T03:21:36.187Z,102774.84
2023-05-19T03:24:02.906Z,102766.59
2023-05-19T03:26:29.459Z,102774.13
2023-05-19T03:28:56.271Z,102777.31
2023-05-19T03:31:22.972Z,102770.25
2023-05-19T03:33:49.596Z,102768.97
2023-05-19T03:36:16.262Z,102780.88
2023-05-19T03:38:42.879Z,102776.13
2023-05-19T03:41:09.600Z,102781.59
2023-05-19T03:43:36.241Z,102775.94
2023-05-19T03:46:02.915Z,102785.44
2023-05-19T03:48:29.610Z,102776.78
2023-05-19T03:50:56.239Z,102779.19
2023-05-19T03:53:22.936Z,102773.47
2023-05-19T03:55:50.685Z,102772.22
2023-05-19T03:58:17.390Z,102775.75
2023-05-19T04:00:44.024Z,102773.88
2023-05-19T04:03:10.855Z,102778.38
2023-05-19T04:05:37.715Z,102769.63
2023-05-19T04:08:04.472Z,102776.88
2023-05-19T04:10:31.222Z,102783.34
2023-05-19T04:12:58.145Z,102751.41
2023-05-19T04:15:24.885Z,102742.16
2023-05-19T04:17:51.822Z,102772.47
2023-05-19T04:20:18.575Z,102773.06
2023-05-19T04:22:45.344Z,102761.56
2023-05-19T04:25:12.053Z,102769.09
2023-05-19T04:27:41.016Z,102762.94
2023-05-19T04:30:08.861Z,102765.06
2023-05-19T04:32:37.540Z,102771.84
2023-05-19T04:35:04.806Z,102761.59
2023-05-19T04:37:31.589Z,102773.88
2023-05-19T04:39:58.242Z,102777.06
2023-05-19T04:42:26.214Z,102779.69
2023-05-19T04:44:53.044Z,102778.91
2023-05-19T04:47:21.662Z,102779.91
2023-05-19T04:49:48.493Z,102789.50
2023-05-19T04:52:16.019Z,102778.88
2023-05-19T04:54:44.349Z,102787.88
2023-05-19T04:57:13.053Z,102790.19
2023-05-19T04:59:40.002Z,102766.66
2023-05-19T05:02:06.880Z,102787.56
2023-05-19T05:04:33.891Z,102780.66
2023-05-19T05:07:00.729Z,102778.94
2023-05-19T05:09:27.615Z,102776.94
2023-05-19T05:11:54.799Z,102753.94
2023-05-19T05:14:21.811Z,102770.47
2023-05-19T05:16:49.623Z,102769.13
2023-05-19T05:19:16.697Z,102769.81
2023-05-19T05:21:43.617Z,102773.81
2023-05-19T05:24:17.003Z,102761.34
2023-05-19T05:26:44.936Z,102746.25
2023-05-19T05:29:15.629Z,102748.56
2023-05-19T05:31:42.837Z,102774.84
2023-05-19T05:34:12.697Z,102757.44
2023-05-19T05:36:42.586Z,102749.47
2023-05-19T05:39:10.108Z,102767.28
2023-05-19T05:41:37.070Z,102768.22
2023-05-19T05:44:05.208Z,102731.97
2023-05-19T05:46:32.714Z,102750.00
2023-05-19T05:48:59.897Z,102775.09
2023-05-19T05:51:28.069Z,102744.63
2023-05-19T05:53:55.700Z,102766.63
2023-05-19T05:56:22.565Z,102764.09
2023-05-19T05:58:49.730Z,102760.00
2023-05-19T06:01:17.914Z,102742.72
2023-05-19T06:03:45.115Z,102755.84
2023-05-19T06:06:13.935Z,102757.06
2023-05-19T06:08:40.644Z,102773.31
2023-05-19T06:11:08.791Z,102776.06
2023-05-19T06:13:36.793Z,102773.03
2023-05-19T06:16:03.995Z,102768.63
2023-05-19T06:18:30.717Z,102770.66
2023-05-19T06:20:57.532Z,102775.47
2023-05-19T06:23:25.289Z,102763.19
2023-05-19T06:25:52.968Z,102770.34
2023-05-19T06:28:19.659Z,102771.69
2023-05-19T06:30:46.432Z,102768.63
2023-05-19T06:33:13.066Z,102764.22
2023-05-19T06:35:42.470Z,102756.19
2023-05-19T06:38:09.085Z,102770.44
2023-05-19T06:40:37.036Z,102770.50
2023-05-19T06:43:04.858Z,102776.38
2023-05-19T06:45:31.657Z,102775.97
2023-05-19T06:47:58.555Z,102769.72
2023-05-19T06:50:26.619Z,102767.69
2023-05-19T06:52:53.244Z,102774.13
2023-05-19T06:55:20.068Z,102771.59
2023-05-19T06:57:46.708Z,102776.97
2023-05-19T07:00:16.798Z,102772.78
2023-05-19T07:02:45.018Z,102771.81
2023-05-19T07:05:12.804Z,102770.09
2023-05-19T07:07:39.773Z,102771.03
2023-05-19T07:10:07.047Z,102771.84
2023-05-19T07:12:33.753Z,102770.19
2023-05-19T07:15:00.689Z,102775.00
2023-05-19T07:17:27.416Z,102766.63
2023-05-19T07:19:54.059Z,102768.16
2023-05-19T07:22:21.236Z,102761.72
2023-05-19T07:24:47.969Z,102759.75
2023-05-19T07:27:14.630Z,102759.75
2023-05-19T07:29:41.300Z,102768.94
2023-05-19T07:32:07.972Z,102768.31
2023-05-19T07:34:34.680Z,102765.47
2023-05-19T07:37:02.134Z,102766.78
2023-05-19T07:39:29.815Z,102761.63
2023-05-19T07:41:57.306Z,102756.81
2023-05-19T07:44:23.941Z,102758.94
2023-05-19T07:46:50.795Z,102752.53
2023-05-19T07:49:17.486Z,102749.19
2023-05-19T07:51:45.185Z,102748.06
2023-05-19T07:54:12.900Z,102756.47
2023-05-19T07:56:39.927Z,102747.63
2023-05-19T07:59:07.976Z,102739.38
2023-05-19T08:01:34.560Z,102747.16
2023-05-19T08:04:01.373Z,102742.78
2023-05-19T08:06:30.081Z,102752.47
2023-05-19T08:08:56.715Z,102750.78
2023-05-19T08:11:24.510Z,102745.31
2023-05-19T08:13:51.771Z,102744.47
2023-05-19T08:16:18.700Z,102741.09
2023-05-19T08:18:45.495Z,102744.47
2023-05-19T08:21:12.383Z,102745.28
2023-05-19T08:23:39.117Z,102740.13
2023-05-19T08:26:05.866Z,102739.06
2023-05-19T08:28:32.569Z,102732.16
2023-05-19T08:31:02.454Z,102739.88
2023-05-19T08:33:29.110Z,102731.25
2023-05-19T08:35:58.192Z,102725.72
2023-05-19T08:38:26.338Z,102733.72
2023-05-19T08:40:53.280Z,102735.66
2023-05-19T08:43:21.185Z,102733.31
2023-05-19T08:45:48.504Z,102735.66
2023-05-19T08:48:17.482Z,102733.28
2023-05-19T08:50:57.043Z,102730.69
2023-05-19T08:53:34.858Z,102735.19
2023-05-19T08:56:11.514Z,102731.09
2023-05-19T08:58:43.939Z,102723.66
2023-05-19T09:01:14.559Z,102732.94
2023-05-19T09:03:43.062Z,102728.16
2023-05-19T09:06:13.962Z,102721.00
2023-05-19T09:08:42.615Z,102717.84
2023-05-19T09:11:11.097Z,102722.19
2023-05-19T09:13:39.077Z,102716.50
2023-05-19T09:16:06.837Z,102716.63
2023-05-19T09:18:34.199Z,102709.47
2023-05-19T09:21:03.198Z,102723.47
2023-05-19T09:23:36.561Z,102717.72
2023-05-19T09:26:08.082Z,102718.34
2023-05-19T09:28:36.865Z,102714.50
2023-05-19T09:31:06.802Z,102711.63
2023-05-19T09:33:36.036Z,102727.78
2023-05-19T09:36:05.808Z,102720.56
2023-05-19T09:38:33.253Z,102716.81
2023-05-19T09:41:01.355Z,102720.22
2023-05-19T09:43:30.045Z,102724.56
2023-05-19T09:46:03.648Z,102724.44
2023-05-19T09:48:30.562Z,102726.22
2023-05-19T09:50:58.168Z,102724.22
2023-05-19T09:53:25.509Z,102721.94
2023-05-19T09:55:57.904Z,102720.97
2023-05-19T09:58:25.161Z,102719.22
2023-05-19T10:00:54.754Z,102706.97
2023-05-19T10:03:24.035Z,102707.09
2023-05-19T10:05:53.076Z,102725.91
2023-05-19T10:08:20.372Z,102719.31
2023-05-19T10:10:47.861Z,102721.78
2023-05-19T10:13:16.551Z,102718.34
2023-05-19T10:15:57.241Z,102720.25
2023-05-19T10:18:25.910Z,102712.00
2023-05-19T10:20:53.936Z,102708.97
2023-05-19T10:23:20.618Z,102715.22
2023-05-19T10:25:49.437Z,102707.78
2023-05-19T10:28:21.165Z,102705.94
2023-05-19T10:30:53.123Z,102705.50
2023-05-19T10:33:29.392Z,102701.38
2023-05-19T10:36:25.477Z,102705.81
2023-05-19T10:39:17.475Z,102702.97
2023-05-19T10:42:11.458Z,102692.38
2023-05-19T10:44:53.457Z,102711.00
2023-05-19T10:47:26.413Z,102709.75
2023-05-19T10:49:56.325Z,102699.91
2023-05-19T10:52:29.778Z,102701.09
2023-05-19T10:54:58.332Z,102699.47
2023-05-19T10:57:28.554Z,102695.56
2023-05-19T10:59:57.151Z,102699.56
2023-05-19T11:02:43.254Z,102694.59
2023-05-19T11:05:18.580Z,102697.34
2023-05-19T11:08:02.314Z,102690.84
2023-05-19T11:10:29.301Z,102688.19
2023-05-19T11:12:58.272Z,102684.13
2023-05-19T11:15:28.767Z,102677.00
2023-05-19T11:17:55.608Z,102680.41
2023-05-19T11:20:28.874Z,102667.53
2023-05-19T11:23:17.914Z,102669.91
2023-05-19T11:25:49.513Z,102674.69
2023-05-19T11:28:19.542Z,102667.94
2023-05-19T11:30:52.284Z,102673.22
2023-05-19T11:33:20.721Z,102670.28
2023-05-19T11:35:49.829Z,102655.50
2023-05-19T11:38:20.483Z,102666.66
2023-05-19T11:40:49.746Z,102662.94
2023-05-19T11:43:16.811Z,102653.84
2023-05-19T11:45:44.109Z,102654.69
2023-05-19T11:48:16.074Z,102650.00
2023-05-19T11:50:44.211Z,102661.09
2023-05-19T11:53:16.366Z,102657.19
2023-05-19T11:55:47.555Z,102641.50
2023-05-19T11:58:14.581Z,102642.44
2023-05-19T12:00:43.392Z,102652.28
2023-05-19T12:03:11.563Z,102643.38
2023-05-19T12:05:44.912Z,102647.56
2023-05-19T12:08:12.531Z,102647.09
2023-05-19T12:10:40.130Z,102638.25
2023-05-19T12:15:36.687Z,102643.75
2023-05-19T12:18:04.146Z,102640.44
2023-05-19T12:20:36.172Z,102645.94
2023-05-19T12:23:03.867Z,102635.72
2023-05-19T12:25:32.456Z,102656.13
2023-05-19T12:28:00.909Z,102645.50
2023-05-19T12:30:29.291Z,102634.16
2023-05-19T12:33:00.402Z,102632.28
2023-05-19T12:35:33.289Z,102627.69
2023-05-19T12:38:04.897Z,102626.28
2023-05-19T12:40:32.023Z,102632.16
2023-05-19T12:42:59.537Z,102626.75
2023-05-19T12:45:28.432Z,102621.00
2023-05-19T12:47:56.257Z,102635.88
2023-05-19T12:50:30.537Z,102627.88
2023-05-19T12:52:59.590Z,102621.97
2023-05-19T12:55:26.515Z,102620.75
2023-05-19T12:57:56.888Z,102624.47
2023-05-19T13:00:32.635Z,102628.13
2023-05-19T13:03:00.881Z,102621.63
2023-05-19T13:05:29.193Z,102608.53
2023-05-19T13:08:10.174Z,102618.72
2023-05-19T13:10:38.572Z,102609.50
2023-05-19T13:13:08.415Z,102602.19
2023-05-19T13:15:38.109Z,102603.59
2023-05-19T13:18:06.426Z,102592.22
2023-05-19T13:20:33.732Z,102607.03
2023-05-19T13:23:01.148Z,102610.38
2023-05-19T13:25:28.378Z,102608.06
2023-05-19T13:27:55.407Z,102607.84
2023-05-19T13:30:22.745Z,102602.56
2023-05-19T13:32:49.815Z,102608.25
2023-05-19T13:35:16.710Z,102611.66
2023-05-19T13:37:43.583Z,102601.78
2023-05-19T13:40:11.337Z,102596.47
2023-05-19T13:42:38.161Z,102603.88
2023-05-19T13:45:05.571Z,102602.66
2023-05-19T13:47:32.366Z,102598.84
2023-05-19T13:49:59.325Z,102594.16
2023-05-19T13:52:27.545Z,102583.84
2023-05-19T13:54:56.703Z,102590.09
2023-05-19T13:57:26.535Z,102601.00
2023-05-19T14:00:02.461Z,102586.34
2023-05-19T14:02:30.521Z,102566.09
2023-05-19T14:04:57.662Z,102583.94
2023-05-19T14:07:25.737Z,102591.25
2023-05-19T14:09:53.141Z,102589.72
2023-05-19T14:12:23.255Z,102576.78
2023-05-19T14:14:52.180Z,102597.38
2023-05-19T14:17:19.043Z,102589.50
2023-05-19T14:19:45.761Z,102592.13
2023-05-19T14:22:13.489Z,102584.56
2023-05-19T14:24:41.585Z,102583.06
2023-05-19T14:27:08.240Z,102578.72
2023-05-19T14:29:35.503Z,102585.13
2023-05-19T14:32:03.449Z,102585.47
2023-05-19T14:34:30.480Z,102580.91
2023-05-19T14:36:57.234Z,102572.16
2023-05-19T14:39:23.873Z,102580.22
2023-05-19T14:41:52.011Z,102574.00
2023-05-19T14:44:18.809Z,102577.75
2023-05-19T14:46:45.543Z,102567.66
2023-05-19T14:49:12.204Z,102579.91
2023-05-19T14:51:38.909Z,102577.84
2023-05-19T14:54:05.610Z,102563.31
2023-05-19T14:56:32.277Z,102562.34
2023-05-19T14:58:58.900Z,102567.41
2023-05-19T15:01:25.910Z,102564.91
2023-05-19T15:03:52.790Z,102577.84
2023-05-19T15:06:19.567Z,102569.66
2023-05-19T15:08:46.456Z,102567.78
2023-05-19T15:11:13.187Z,102557.84
2023-05-19T15:13:40.787Z,102561.91
2023-05-19T15:16:17.645Z,102542.34
2023-05-19T15:18:45.236Z,102541.91
2023-05-19T15:21:12.499Z,102540.31
2023-05-19T15:23:39.141Z,102540.66
2023-05-19T15:26:06.024Z,102534.88
2023-05-19T15:28:33.595Z,102551.81
2023-05-19T15:31:00.428Z,102545.22
2023-05-19T15:33:27.202Z,102551.84
2023-05-19T15:35:54.347Z,102556.22
2023-05-19T15:38:21.186Z,102550.28
2023-05-19T15:40:48.179Z,102543.78
2023-05-19T15:43:14.984Z,102540.81
2023-05-19T15:45:41.689Z,102549.56
2023-05-19T15:48:08.817Z,102546.34
2023-05-19T15:50:36.139Z,102548.53
2023-05-19T15:53:03.535Z,102549.34
2023-05-19T15:55:30.505Z,102539.03
2023-05-19T15:57:57.287Z,102546.09
2023-05-19T16:00:23.941Z,102546.03
2023-05-19T16:02:50.777Z,102535.38
2023-05-19T16:05:17.914Z,102527.19
2023-05-19T16:07:45.084Z,102537.59
2023-05-19T16:10:11.790Z,102539.38
2023-05-19T16:12:38.609Z,102529.72
2023-05-19T16:15:05.781Z,102518.06
2023-05-19T16:17:32.621Z,102517.13
2023-05-19T16:19:59.294Z,102522.59
2023-05-19T16:22:26.210Z,102517.81
2023-05-19T16:24:53.145Z,102522.75
2023-05-19T16:27:19.921Z,102512.81
2023-05-19T16:29:46.607Z,102534.75
2023-05-19T16:32:13.379Z,102538.41
2023-05-19T16:34:40.337Z,102535.94
2023-05-19T16:37:07.366Z,102534.22
2023-05-19T16:39:37.321Z,102529.59
2023-05-19T16:42:04.783Z,102525.63
2023-05-19T16:44:31.533Z,102523.88
2023-05-19T16:46:58.168Z,102521.97
2023-05-19T16:49:24.812Z,102529.63
2023-05-19T16:51:53.152Z,102534.69
2023-05-19T16:54:21.380Z,102535.41
2023-05-19T16:56:50.494Z,102530.00
2023-05-19T16:59:17.478Z,102522.97
2023-05-19T17:01:44.830Z,102533.47
2023-05-19T17:04:11.984Z,102537.91
2023-05-19T17:06:39.249Z,102529.97
2023-05-19T17:09:06.184Z,102525.13
2023-05-19T17:11:32.929Z,102539.38
2023-05-19T17:13:59.924Z,102539.97
2023-05-19T17:16:27.744Z,102531.13
2023-05-19T17:18:54.520Z,102536.34
2023-05-19T17:21:21.552Z,102528.94
2023-05-19T17:23:49.430Z,102535.44
2023-05-19T17:26:16.744Z,102536.72
2023-05-19T17:28:43.542Z,102535.91
2023-05-19T17:31:12.034Z,102536.78
2023-05-19T17:33:39.452Z,102538.31
2023-05-19T17:36:07.288Z,102536.28
2023-05-19T17:38:34.547Z,102538.91
2023-05-19T17:41:02.446Z,102527.53
2023-05-19T17:43:29.275Z,102539.28
2023-05-19T17:45:56.786Z,102541.16
2023-05-19T17:48:25.940Z,102554.41
2023-05-19T17:50:52.641Z,102561.47
2023-05-19T17:53:19.698Z,102558.16
2023-05-19T17:55:51.803Z,102566.66
2023-05-19T17:58:19.803Z,102566.88
2023-05-19T18:00:46.653Z,102580.03
2023-05-19T18:03:13.933Z,102571.00
2023-05-19T18:05:43.344Z,102569.97
2023-05-19T18:08:14.969Z,102568.69
2023-05-19T18:10:42.619Z,102579.19
2023-05-19T18:13:15.266Z,102570.06
2023-05-19T18:15:41.965Z,102574.22
2023-05-19T18:18:10.705Z,102586.59
2023-05-19T18:20:44.286Z,102585.47
2023-05-19T18:23:11.479Z,102591.06
2023-05-19T18:25:39.387Z,102582.22
2023-05-19T18:28:06.058Z,102582.03
2023-05-19T18:30:33.234Z,102589.00
2023-05-19T18:33:03.678Z,102598.78
2023-05-19T18:35:30.843Z,102597.25
2023-05-19T18:37:57.608Z,102605.53
2023-05-19T18:40:24.677Z,102601.41
2023-05-19T18:42:52.370Z,102612.91
2023-05-19T18:45:19.237Z,102619.97
2023-05-19T18:47:46.534Z,102615.59
2023-05-19T18:50:14.518Z,102623.63
2023-05-19T18:52:41.184Z,102623.91
2023-05-19T18:55:14.871Z,102637.59
2023-05-19T18:57:41.980Z,102636.59
2023-05-19T19:00:09.278Z,102640.81
2023-05-19T19:02:36.102Z,102637.09
2023-05-19T19:05:04.106Z,102636.91
2023-05-19T19:07:31.994Z,102640.66
2023-05-19T19:09:58.733Z,102635.66
2023-05-19T19:12:27.441Z,102648.53
2023-05-19T19:14:54.892Z,102650.34
2023-05-19T19:17:22.085Z,102657.22
2023-05-19T19:19:49.117Z,102657.66
2023-05-19T19:22:16.113Z,102654.88
2023-05-19T19:24:43.192Z,102651.78
2023-05-19T19:27:10.893Z,102664.88
2023-05-19T19:29:37.697Z,102669.34
2023-05-19T19:32:04.883Z,102659.25
2023-05-19T19:34:31.771Z,102677.03
2023-05-19T19:36:58.431Z,102665.16
2023-05-19T19:39:26.110Z,102672.16
2023-05-19T19:41:55.190Z,102667.41
2023-05-19T19:44:23.981Z,102665.22
2023-05-19T19:46:51.959Z,102676.47
2023-05-19T19:49:20.116Z,102665.34
2023-05-19T19:51:46.935Z,102678.91
2023-05-19T19:54:13.625Z,102676.22
2023-05-19T19:56:40.886Z,102672.56
2023-05-19T19:59:07.725Z,102677.00
2023-05-19T20:01:34.851Z,102669.88
2023-05-19T20:04:01.757Z,102668.34
2023-05-19T20:06:28.610Z,102665.50
2023-05-19T20:08:55.311Z,102665.50
2023-05-19T20:11:23.842Z,102664.59
2023-05-19T20:13:50.658Z,102672.22
2023-05-19T20:16:17.395Z,102675.41
2023-05-19T20:18:44.116Z,102678.75
2023-05-19T20:21:10.787Z,102666.31
2023-05-19T20:23:39.088Z,102662.75
2023-05-19T20:28:36.533Z,102652.63
2023-05-19T20:31:03.172Z,102674.47
2023-05-19T20:33:29.839Z,102680.44
2023-05-19T20:35:56.466Z,102677.97
2023-05-19T20:38:23.098Z,102639.16
2023-05-19T20:40:49.849Z,102686.00
2023-05-19T20:43:16.596Z,102682.75
2023-05-19T20:45:44.259Z,102681.56
2023-05-19T20:48:11.412Z,102690.16
2023-05-19T20:50:39.348Z,102680.56
2023-05-19T20:53:07.435Z,102678.63
2023-05-19T20:55:37.523Z,102673.59
2023-05-19T20:58:04.632Z,102683.00
2023-05-19T21:00:31.324Z,102680.47
2023-05-19T21:02:58.172Z,102687.34
2023-05-19T21:05:25.035Z,102687.81
2023-05-19T21:07:51.776Z,102694.41
2023-05-19T21:10:18.444Z,102682.06
2023-05-19T21:12:45.732Z,102684.81
2023-05-19T21:15:12.670Z,102686.34
2023-05-19T21:17:39.484Z,102665.72
2023-05-19T21:20:06.652Z,102682.94
2023-05-19T21:22:35.646Z,102673.75
2023-05-19T21:25:02.311Z,102673.84
2023-05-19T21:27:29.054Z,102678.88
2023-05-19T21:29:55.744Z,102674.19
2023-05-19T21:32:22.555Z,102688.47
2023-05-19T21:34:49.208Z,102685.53
2023-05-19T21:37:17.377Z,102665.31
2023-05-19T21:39:44.680Z,102682.31
2023-05-19T21:42:11.413Z,102684.28
2023-05-19T21:44:38.219Z,102672.97
2023-05-19T21:47:04.994Z,102679.72
2023-05-19T21:49:31.706Z,102672.63
2023-05-19T21:51:58.804Z,102661.81
2023-05-19T21:54:25.451Z,102667.56
2023-05-19T21:56:52.198Z,102666.38
2023-05-19T21:59:19.558Z,102673.47
2023-05-19T22:01:46.833Z,102651.00
2023-05-19T22:04:16.460Z,102674.88
2023-05-19T22:06:43.325Z,102688.84
2023-05-19T22:09:10.426Z,102689.91
2023-05-19T22:11:37.172Z,102688.56
2023-05-19T22:14:03.806Z,102675.28
2023-05-19T22:16:31.161Z,102656.16
2023-05-19T22:18:57.900Z,102650.97
2023-05-19T22:21:24.771Z,102687.97
2023-05-19T22:23:52.149Z,102686.72
2023-05-19T22:26:18.766Z,102682.22
2023-05-19T22:28:45.512Z,102680.41
2023-05-19T22:31:12.438Z,102681.75
2023-05-19T22:33:39.211Z,102681.59
2023-05-19T22:36:06.414Z,102678.81
2023-05-19T22:38:33.082Z,102675.00
2023-05-19T22:40:59.766Z,102673.75
2023-05-19T22:43:26.504Z,102675.28
2023-05-19T22:45:53.230Z,102674.44
2023-05-19T22:48:19.980Z,102675.28
2023-05-19T22:50:46.813Z,102670.19
2023-05-19T22:53:13.497Z,102667.06
2023-05-19T22:55:40.450Z,102667.09
2023-05-19T22:58:07.189Z,102669.50
2023-05-19T23:00:33.890Z,102664.13
2023-05-19T23:03:00.539Z,102658.16
2023-05-19T23:05:27.250Z,102661.00
2023-05-19T23:07:54.028Z,102659.72
2023-05-19T23:10:20.579Z,102666.41
2023-05-19T23:12:47.276Z,102667.94
2023-05-19T23:15:13.869Z,102663.97
2023-05-19T23:17:40.595Z,102666.25
2023-05-19T23:20:07.891Z,102643.53
2023-05-19T23:22:34.614Z,102667.41
2023-05-19T23:25:05.655Z,102676.44
2023-05-19T23:27:32.312Z,102681.78
2023-05-19T23:29:59.073Z,102689.28
2023-05-19T23:32:25.932Z,102680.00
2023-05-19T23:34:52.551Z,102677.88
2023-05-19T23:37:19.250Z,102689.06
2023-05-19T23:39:46.042Z,102688.47
2023-05-19T23:42:13.217Z,102686.47
2023-05-19T23:44:40.265Z,102685.47
2023-05-19T23:47:07.066Z,102688.56
2023-05-19T23:49:33.846Z,102688.97
2023-05-19T23:52:00.571Z,102685.72
2023-05-19T23:54:27.237Z,102694.41
2023-05-19T23:56:55.832Z,102694.88
2023-05-19T23:59:22.597Z,102682.09
